SBUG/URG METAR and TAF weather

Enter ICAO airport designator
Station Type Date Time Source
SBUG METAR 2019/06/25 22:00 UTC NOAA

SBUG 252200Z 22004KT CAVOK 07/03 Q1017


Station Type Date Time Source
SBUG Decoded METAR 2019/06/25 22:00 UTC NOAA

Uruguaiana Aeroporto , Brazil (SBUG) 29-47S 057-02W 74M
Jun 25, 2019 - 06:00 PM EDT / 2019.06.25 2200 UTC
Wind: from the SW (220 degrees) at 5 MPH (4 KT):0
Visibility: greater than 7 mile(s):0
Temperature: 44 F (7 C)
Dew Point: 37 F (3 C)
Relative Humidity: 75%
Pressure (altimeter): 30.03 in. Hg (1017 hPa)
ob: SBUG 252200Z 22004KT CAVOK 07/03 Q1017
cycle: 22

Station Type Date Time Source
SBUG TAF 2019/06/26 06:42 UTC NOAA

TAF SBUG 260130Z 2606/2618 20010KT CAVOK TN05/2609Z TX14/2617Z
RMK PE B

Example: see airport list